Time;durP1;ratioP1;P1;durP2;ratioP2;P2;SDS_P1;SDS_P2;PMS_P1;PMS_P2;Temp;Humidity;BMP_temperature;BMP_pressure;BME280_temperature;BME280_humidity;BME280_pressure;Samples;Min_cycle;Max_cycle;Signal;HPM_P1;HPM_P2
2021/01/01 00:01:08;;;;;;;40.70;36.60;;;4.40;99.90;;;;;;5049291;28;20458;-61
2021/01/01 00:03:35;;;;;;;42.97;38.40;;;4.20;99.90;;;;;;5037617;28;20450;-62
2021/01/01 00:06:02;;;;;;;44.67;39.93;;;4.20;99.90;;;;;;5048631;28;20476;-62
2021/01/01 00:08:29;;;;;;;36.33;32.83;;;4.10;99.90;;;;;;5046017;28;20487;-62
2021/01/01 00:10:56;;;;;;;32.33;29.03;;;4.00;99.90;;;;;;5046519;28;20818;-63
2021/01/01 00:13:22;;;;;;;35.47;31.77;;;4.00;99.90;;;;;;5054209;28;20455;-63
2021/01/01 00:15:48;;;;;;;33.17;29.87;;;4.10;99.90;;;;;;5053560;28;20471;-62
2021/01/01 00:18:15;;;;;;;35.73;31.83;;;4.00;99.90;;;;;;5049613;28;20794;-63
2021/01/01 00:20:42;;;;;;;35.57;32.00;;;4.00;99.90;;;;;;5048101;28;20455;-63
2021/01/01 00:23:10;;;;;;;36.93;31.13;;;4.00;99.90;;;;;;5053785;28;20444;-63
2021/01/01 00:25:36;;;;;;;33.90;30.17;;;4.00;99.90;;;;;;5045994;28;20909;-66
2021/01/01 00:28:02;;;;;;;34.30;30.83;;;3.90;99.90;;;;;;5042013;28;20484;-64
2021/01/01 00:30:29;;;;;;;28.13;25.13;;;3.90;99.90;;;;;;5042345;28;20445;-64
2021/01/01 00:32:55;;;;;;;26.60;23.77;;;3.90;99.90;;;;;;5054457;28;20865;-63
2021/01/01 00:35:21;;;;;;;24.70;22.20;;;3.90;99.90;;;;;;5053172;28;20802;-63
2021/01/01 00:37:49;;;;;;;26.60;22.10;;;3.80;99.90;;;;;;5045588;28;20955;-63
2021/01/01 00:40:15;;;;;;;26.30;23.60;;;3.80;99.90;;;;;;5034329;28;20818;-63
2021/01/01 00:42:43;;;;;;;25.13;22.57;;;3.80;99.90;;;;;;5045890;28;20464;-64
2021/01/01 00:45:10;;;;;;;26.17;22.13;;;3.70;99.90;;;;;;5053866;28;20456;-63
2021/01/01 00:47:36;;;;;;;25.03;22.40;;;3.70;99.90;;;;;;5048598;28;20489;-64
2021/01/01 00:50:04;;;;;;;24.50;21.90;;;3.60;99.90;;;;;;5034499;28;20448;-65
2021/01/01 00:52:30;;;;;;;22.63;18.40;;;3.60;99.90;;;;;;5051929;28;20451;-65
2021/01/01 00:54:57;;;;;;;21.90;19.70;;;3.70;99.90;;;;;;5043018;28;20993;-67
2021/01/01 00:57:24;;;;;;;23.00;20.50;;;3.60;99.90;;;;;;5041002;28;20488;-63
2021/01/01 00:59:51;;;;;;;24.90;21.70;;;3.60;99.90;;;;;;5040304;28;20453;-62
2021/01/01 01:02:17;;;;;;;24.93;22.37;;;3.70;99.90;;;;;;5045678;28;20986;-64
2021/01/01 01:04:44;;;;;;;23.93;21.43;;;3.70;99.90;;;;;;5035980;28;20441;-64
2021/01/01 01:07:10;;;;;;;22.83;20.40;;;3.60;99.90;;;;;;5036219;28;20480;-62
2021/01/01 01:09:36;;;;;;;23.27;20.87;;;3.60;99.90;;;;;;5066829;22;20499;-66
2021/01/01 01:12:04;;;;;;;24.87;22.23;;;3.70;99.90;;;;;;5047728;28;20462;-65
2021/01/01 01:14:30;;;;;;;20.83;18.63;;;3.70;99.90;;;;;;5051629;28;20454;-65
2021/01/01 01:16:56;;;;;;;23.53;21.07;;;3.60;99.90;;;;;;5052303;28;20460;-64
2021/01/01 01:19:23;;;;;;;24.10;21.63;;;3.60;99.90;;;;;;5051504;28;20506;-65
2021/01/01 01:21:49;;;;;;;22.23;19.97;;;3.50;99.90;;;;;;5053026;28;20448;-64
2021/01/01 01:24:15;;;;;;;20.77;18.67;;;3.60;99.90;;;;;;5052081;28;20991;-65
2021/01/01 01:26:41;;;;;;;23.43;21.10;;;3.60;99.90;;;;;;5062498;28;20462;-65
2021/01/01 01:29:09;;;;;;;19.83;17.83;;;3.60;99.90;;;;;;5053391;28;20821;-64
2021/01/01 01:31:35;;;;;;;20.73;18.77;;;3.70;99.90;;;;;;5052227;28;20456;-64
2021/01/01 01:34:01;;;;;;;21.30;19.00;;;3.60;99.90;;;;;;5069064;28;21184;-64
2021/01/01 01:36:27;;;;;;;21.70;19.50;;;3.60;99.90;;;;;;5053533;28;20458;-65
2021/01/01 01:38:54;;;;;;;20.87;18.67;;;3.60;99.90;;;;;;5052270;28;20951;-64
2021/01/01 01:41:20;;;;;;;20.80;17.87;;;3.60;99.90;;;;;;5038940;28;20529;-64
2021/01/01 01:43:46;;;;;;;20.07;18.07;;;3.60;99.90;;;;;;5053344;28;20455;-64
2021/01/01 01:46:13;;;;;;;22.23;18.97;;;3.70;99.90;;;;;;5051481;28;20535;-65
2021/01/01 01:48:40;;;;;;;18.13;16.10;;;3.70;99.90;;;;;;5050894;28;20479;-65
2021/01/01 01:51:09;;;;;;;19.73;17.60;;;3.60;99.90;;;;;;5053629;28;20501;-64
2021/01/01 01:53:40;;;;;;;19.30;17.37;;;3.70;99.90;;;;;;5051198;28;20459;-65
2021/01/01 01:56:07;;;;;;;20.70;18.60;;;3.70;99.90;;;;;;5051478;28;20436;-64
2021/01/01 01:58:34;;;;;;;20.93;18.70;;;3.70;99.90;;;;;;5053726;28;20454;-64
2021/01/01 02:01:00;;;;;;;21.07;16.93;;;3.70;99.90;;;;;;5058787;28;20834;-64
2021/01/01 02:03:29;;;;;;;20.33;18.23;;;3.70;99.90;;;;;;5051043;28;20462;-65
2021/01/01 02:05:56;;;;;;;18.70;16.77;;;3.70;99.90;;;;;;5052635;28;20452;-64
2021/01/01 02:08:23;;;;;;;20.10;17.90;;;3.70;99.90;;;;;;5051721;28;20488;-64
2021/01/01 02:10:52;;;;;;;20.57;17.33;;;3.70;99.90;;;;;;5050926;28;20471;-64
2021/01/01 02:13:19;;;;;;;20.90;18.70;;;3.80;99.90;;;;;;5051841;28;20462;-64
2021/01/01 02:15:45;;;;;;;18.60;16.60;;;3.80;99.90;;;;;;5052482;28;20459;-65
2021/01/01 02:18:11;;;;;;;20.87;18.57;;;3.80;99.90;;;;;;5063411;28;20805;-64
2021/01/01 02:20:39;;;;;;;21.80;19.43;;;3.80;99.90;;;;;;5051074;28;20475;-64
2021/01/01 02:23:06;;;;;;;20.90;18.80;;;3.70;99.90;;;;;;5065903;28;20455;-64
2021/01/01 02:25:32;;;;;;;20.43;18.27;;;3.80;99.90;;;;;;5050941;28;20444;-64
2021/01/01 02:27:59;;;;;;;21.93;19.50;;;3.80;99.90;;;;;;5052874;28;20847;-64
2021/01/01 02:30:25;;;;;;;22.23;19.73;;;3.80;99.90;;;;;;5052181;28;20476;-64
2021/01/01 02:32:51;;;;;;;21.97;19.60;;;3.80;99.90;;;;;;5054127;28;20459;-64
2021/01/01 02:35:17;;;;;;;21.40;18.73;;;3.80;99.90;;;;;;5050844;28;21000;-65
2021/01/01 02:37:44;;;;;;;21.23;18.63;;;3.80;99.90;;;;;;5051318;28;20497;-64
2021/01/01 02:40:12;;;;;;;21.53;19.13;;;3.80;99.90;;;;;;5051014;28;20475;-64
2021/01/01 02:42:38;;;;;;;21.00;18.80;;;3.80;99.90;;;;;;5050188;28;20443;-64
2021/01/01 02:45:05;;;;;;;23.70;20.63;;;3.70;99.90;;;;;;5067520;28;20542;-64
2021/01/01 02:47:32;;;;;;;21.53;19.23;;;3.80;99.90;;;;;;5055558;28;20482;-64
2021/01/01 02:49:59;;;;;;;22.57;20.27;;;3.70;99.90;;;;;;5059650;28;20478;-63
2021/01/01 02:52:25;;;;;;;21.87;18.90;;;3.70;99.90;;;;;;5051515;28;20444;-65
2021/01/01 02:54:51;;;;;;;22.00;19.70;;;3.80;99.90;;;;;;5054586;28;20460;-65
2021/01/01 02:57:18;;;;;;;22.07;19.57;;;3.80;99.90;;;;;;5050517;28;20959;-67
2021/01/01 02:59:44;;;;;;;21.57;18.70;;;3.70;99.90;;;;;;5061442;28;20478;-65
2021/01/01 03:02:11;;;;;;;24.53;21.23;;;3.70;99.90;;;;;;5054126;28;20455;-65
2021/01/01 03:04:37;;;;;;;23.83;20.20;;;3.70;99.90;;;;;;5062384;28;20455;-65
2021/01/01 03:07:03;;;;;;;23.03;20.53;;;3.70;99.90;;;;;;5061577;28;20454;-65
2021/01/01 03:09:30;;;;;;;22.47;20.00;;;3.70;99.90;;;;;;5051882;28;20475;-65
2021/01/01 03:11:56;;;;;;;25.40;22.60;;;3.70;99.90;;;;;;5049992;28;20543;-67
2021/01/01 03:14:23;;;;;;;24.13;21.53;;;3.70;99.90;;;;;;5054975;28;20443;-66
2021/01/01 03:16:49;;;;;;;23.73;21.40;;;3.70;99.90;;;;;;5052483;28;20457;-65
2021/01/01 03:19:16;;;;;;;25.40;21.33;;;3.70;99.90;;;;;;5057860;28;21000;-65
2021/01/01 03:21:42;;;;;;;26.60;19.73;;;3.70;99.90;;;;;;5055377;28;21092;-64
2021/01/01 03:24:09;;;;;;;25.33;22.60;;;3.70;99.90;;;;;;5049784;28;20452;-66
2021/01/01 03:26:35;;;;;;;25.30;21.67;;;3.70;99.90;;;;;;5049383;28;20479;-65
2021/01/01 03:29:02;;;;;;;27.63;22.67;;;3.60;99.90;;;;;;5050662;28;20476;-65
2021/01/01 03:31:29;;;;;;;25.33;22.73;;;3.60;99.90;;;;;;5052903;28;20452;-66
2021/01/01 03:33:55;;;;;;;29.90;24.17;;;3.60;99.90;;;;;;5063010;28;20455;-65
2021/01/01 03:36:21;;;;;;;24.33;21.63;;;3.60;99.90;;;;;;5057976;28;20958;-65
2021/01/01 03:38:48;;;;;;;25.40;22.63;;;3.60;99.90;;;;;;5063097;28;20443;-65
2021/01/01 03:41:14;;;;;;;25.97;23.30;;;3.70;99.90;;;;;;5056858;28;20471;-65
2021/01/01 03:43:40;;;;;;;25.17;21.87;;;3.60;99.90;;;;;;5060286;28;20452;-66
2021/01/01 03:46:07;;;;;;;27.50;24.23;;;3.60;99.90;;;;;;5054447;28;20974;-68
2021/01/01 03:48:34;;;;;;;27.13;24.10;;;3.60;99.90;;;;;;5054668;28;20505;-65
2021/01/01 03:51:00;;;;;;;28.50;23.80;;;3.60;99.90;;;;;;5054633;28;20467;-65
2021/01/01 03:53:26;;;;;;;31.17;22.90;;;3.60;99.90;;;;;;5072782;28;20496;-65
2021/01/01 03:55:53;;;;;;;26.37;23.13;;;3.70;99.90;;;;;;5058249;28;20947;-65
2021/01/01 03:58:19;;;;;;;26.90;24.00;;;3.70;99.90;;;;;;5054248;28;20444;-67
2021/01/01 04:00:45;;;;;;;25.47;22.60;;;3.70;99.90;;;;;;5053412;28;20539;-66
2021/01/01 04:03:11;;;;;;;28.10;24.70;;;3.70;99.90;;;;;;5060503;28;20448;-65
2021/01/01 04:05:39;;;;;;;29.03;26.20;;;3.60;99.90;;;;;;5049358;28;20453;-65
2021/01/01 04:08:05;;;;;;;35.50;28.20;;;3.40;99.90;;;;;;5060159;28;20479;-65
2021/01/01 04:10:32;;;;;;;30.27;27.13;;;3.40;99.90;;;;;;5058356;28;20482;-66
2021/01/01 04:12:58;;;;;;;32.50;29.30;;;3.30;99.90;;;;;;5056308;28;20452;-65
2021/01/01 04:15:24;;;;;;;33.10;29.60;;;3.30;99.90;;;;;;5054463;28;20448;-66
2021/01/01 04:17:51;;;;;;;31.83;28.50;;;3.30;99.90;;;;;;5053446;28;21020;-65
2021/01/01 04:20:17;;;;;;;30.80;27.70;;;3.30;99.90;;;;;;5054244;28;20478;-63
2021/01/01 04:22:44;;;;;;;33.30;29.97;;;3.30;99.90;;;;;;5053308;28;20966;-64
2021/01/01 04:25:11;;;;;;;32.30;28.63;;;3.30;99.90;;;;;;5054478;28;20452;-64
2021/01/01 04:27:37;;;;;;;31.50;28.17;;;3.30;99.90;;;;;;5060240;28;20482;-64
2021/01/01 04:30:05;;;;;;;32.20;28.90;;;3.30;99.90;;;;;;5066218;28;20994;-64
2021/01/01 04:32:31;;;;;;;34.37;30.77;;;3.30;99.90;;;;;;5060889;28;20456;-64
2021/01/01 04:34:58;;;;;;;34.37;30.97;;;3.30;99.90;;;;;;5054125;28;20448;-64
2021/01/01 04:37:24;;;;;;;35.37;31.60;;;3.30;99.90;;;;;;5057998;28;20466;-64
2021/01/01 04:39:51;;;;;;;32.50;29.20;;;3.20;99.90;;;;;;5054528;28;20990;-64
2021/01/01 04:42:19;;;;;;;34.03;30.47;;;3.30;99.90;;;;;;5056912;28;20447;-64
2021/01/01 04:44:45;;;;;;;35.00;31.40;;;3.30;99.90;;;;;;5058842;28;20509;-65
2021/01/01 04:47:15;;;;;;;36.10;32.23;;;3.20;99.90;;;;;;5055701;28;20827;-65
2021/01/01 04:49:42;;;;;;;36.90;33.10;;;3.20;99.90;;;;;;5072822;28;20611;-65
2021/01/01 04:52:09;;;;;;;36.93;33.00;;;3.20;99.90;;;;;;5058186;28;20544;-66
2021/01/01 04:54:37;;;;;;;37.00;32.83;;;3.20;99.90;;;;;;5051425;28;20447;-65
2021/01/01 04:57:05;;;;;;;40.10;35.93;;;3.20;99.90;;;;;;5057738;28;20450;-65
2021/01/01 04:59:31;;;;;;;36.70;32.90;;;3.20;99.90;;;;;;5060022;28;20464;-65
2021/01/01 05:01:57;;;;;;;39.73;35.07;;;3.20;99.90;;;;;;5058736;28;20453;-66
2021/01/01 05:04:23;;;;;;;41.50;35.53;;;3.20;99.90;;;;;;5064227;28;20452;-65
2021/01/01 05:06:50;;;;;;;39.50;35.20;;;3.20;99.90;;;;;;5059692;28;20830;-67
2021/01/01 05:09:16;;;;;;;39.00;34.60;;;3.20;99.90;;;;;;5041224;28;20486;-65
2021/01/01 05:11:43;;;;;;;42.63;37.77;;;3.30;99.90;;;;;;5052888;28;20501;-65
2021/01/01 05:14:10;;;;;;;44.83;36.93;;;3.20;99.90;;;;;;5052513;28;20459;-66
2021/01/01 05:16:36;;;;;;;41.70;37.30;;;3.20;99.90;;;;;;5070924;28;20457;-65
2021/01/01 05:19:10;;;;;;;47.23;38.70;;;3.20;99.90;;;;;;5055253;28;20451;-65
2021/01/01 05:21:37;;;;;;;42.93;38.33;;;3.10;99.90;;;;;;5060703;28;20490;-64
2021/01/01 05:24:06;;;;;;;46.90;38.93;;;3.20;99.90;;;;;;5060077;28;20463;-64
2021/01/01 05:26:32;;;;;;;41.67;37.10;;;3.10;99.90;;;;;;5059908;28;20978;-64
2021/01/01 05:29:04;;;;;;;45.90;40.33;;;3.10;99.90;;;;;;5052311;28;20487;-64
2021/01/01 05:31:32;;;;;;;51.97;40.77;;;3.10;99.90;;;;;;5063976;28;20954;-64
2021/01/01 05:34:01;;;;;;;49.43;39.90;;;3.10;99.90;;;;;;5057790;28;20447;-64
2021/01/01 05:36:33;;;;;;;46.50;38.80;;;3.10;99.90;;;;;;5053661;28;20516;-65
2021/01/01 05:39:01;;;;;;;47.20;40.27;;;3.10;99.90;;;;;;5046491;28;20459;-64
2021/01/01 05:41:33;;;;;;;54.47;42.87;;;3.10;99.90;;;;;;5052234;28;20863;-64
2021/01/01 05:44:15;;;;;;;49.40;40.80;;;3.10;99.90;;;;;;5051377;28;20460;-64
2021/01/01 05:46:59;;;;;;;47.07;38.43;;;3.10;99.90;;;;;;5055668;28;20517;-64
2021/01/01 05:49:29;;;;;;;47.73;41.73;;;3.10;99.90;;;;;;5047042;28;20556;-64
2021/01/01 05:52:09;;;;;;;49.53;41.73;;;3.10;99.90;;;;;;5051052;28;20455;-64
2021/01/01 05:54:37;;;;;;;47.43;40.80;;;3.10;99.90;;;;;;5052304;28;20433;-64
2021/01/01 05:57:04;;;;;;;46.50;40.77;;;3.20;99.90;;;;;;5065512;28;20448;-64
2021/01/01 05:59:34;;;;;;;53.40;42.10;;;3.10;99.90;;;;;;5053128;28;20484;-64
2021/01/01 06:02:03;;;;;;;46.33;41.23;;;3.00;99.90;;;;;;5049395;28;20501;-64
2021/01/01 06:04:30;;;;;;;49.03;42.13;;;3.00;99.90;;;;;;5056067;28;20459;-64
2021/01/01 06:07:00;;;;;;;51.23;42.20;;;3.10;99.90;;;;;;5041278;28;20468;-64
2021/01/01 06:09:28;;;;;;;51.93;41.17;;;3.00;99.90;;;;;;5051626;28;20488;-64
2021/01/01 06:12:06;;;;;;;51.90;44.07;;;3.00;99.90;;;;;;5057361;28;20456;-64
2021/01/01 06:14:38;;;;;;;51.93;41.87;;;3.00;99.90;;;;;;5051839;28;20428;-65
2021/01/01 06:17:19;;;;;;;49.43;42.63;;;3.00;99.90;;;;;;5057921;28;20471;-64
2021/01/01 06:19:51;;;;;;;50.70;44.70;;;3.00;99.90;;;;;;5051325;28;20844;-65
2021/01/01 06:22:19;;;;;;;48.07;41.17;;;3.10;99.90;;;;;;5063600;28;21048;-65
2021/01/01 06:24:49;;;;;;;45.17;40.37;;;3.10;99.90;;;;;;5067967;28;20460;-65
2021/01/01 06:27:16;;;;;;;47.60;40.17;;;3.10;99.90;;;;;;5051187;28;20959;-64
2021/01/01 06:29:45;;;;;;;44.03;39.30;;;3.10;99.90;;;;;;5051291;28;20513;-65
2021/01/01 06:32:12;;;;;;;44.73;38.70;;;3.10;99.90;;;;;;5052901;28;20455;-65
2021/01/01 06:34:40;;;;;;;42.50;37.90;;;3.10;99.90;;;;;;5050779;28;20448;-64
2021/01/01 06:37:06;;;;;;;45.30;38.87;;;3.10;99.90;;;;;;5054684;28;20456;-65
2021/01/01 06:39:41;;;;;;;41.93;36.40;;;3.00;99.90;;;;;;5051268;28;20466;-65
2021/01/01 06:42:08;;;;;;;42.87;36.93;;;3.00;99.90;;;;;;5052549;28;20979;-65
2021/01/01 06:44:39;;;;;;;39.33;35.00;;;3.00;99.90;;;;;;5050629;28;20790;-65
2021/01/01 06:47:08;;;;;;;42.43;37.87;;;2.90;99.90;;;;;;5051800;28;20486;-64
2021/01/01 06:49:36;;;;;;;44.30;37.97;;;3.00;99.90;;;;;;5051443;28;20463;-64
2021/01/01 06:52:21;;;;;;;42.10;35.70;;;2.90;99.90;;;;;;5051278;28;20451;-65
2021/01/01 06:54:59;;;;;;;45.90;38.77;;;3.00;99.90;;;;;;5050534;28;20451;-64
2021/01/01 06:57:27;;;;;;;42.13;37.10;;;3.00;99.90;;;;;;5039265;28;20460;-64
2021/01/01 06:59:55;;;;;;;44.57;37.47;;;3.00;99.90;;;;;;5045925;28;21002;-65
2021/01/01 07:02:29;;;;;;;44.77;38.07;;;3.10;99.90;;;;;;5061317;28;20973;-65
2021/01/01 07:04:56;;;;;;;41.57;37.03;;;3.20;99.90;;;;;;5051156;28;20515;-65
2021/01/01 07:07:41;;;;;;;43.73;38.50;;;3.00;99.90;;;;;;5050219;28;20444;-65
2021/01/01 07:10:12;;;;;;;44.53;37.30;;;3.00;99.90;;;;;;5043410;28;20472;-66
2021/01/01 07:15:32;;;;;;;46.30;38.10;;;2.80;99.90;;;;;;5059863;22;20487;-60
2021/01/01 07:17:58;;;;;;;48.37;39.57;;;2.80;99.90;;;;;;5035306;28;20448;-61
2021/01/01 07:20:25;;;;;;;45.00;37.17;;;2.90;99.90;;;;;;5040920;28;20448;-61
2021/01/01 07:22:57;;;;;;;47.43;37.50;;;2.90;99.90;;;;;;5034599;28;20456;-60
2021/01/01 07:25:33;;;;;;;46.70;39.27;;;2.90;99.90;;;;;;5018606;28;20499;-61
2021/01/01 07:28:01;;;;;;;47.40;40.30;;;2.90;99.90;;;;;;5034142;28;21009;-61
2021/01/01 07:30:31;;;;;;;45.33;39.40;;;3.00;99.90;;;;;;5034542;28;20445;-60
2021/01/01 07:32:59;;;;;;;48.63;41.00;;;3.00;99.90;;;;;;5033935;28;20444;-60
2021/01/01 07:35:25;;;;;;;43.23;36.70;;;2.90;99.90;;;;;;5034792;28;20453;-61
2021/01/01 07:37:53;;;;;;;44.93;39.27;;;2.90;99.90;;;;;;5034097;28;20441;-60
2021/01/01 07:40:21;;;;;;;45.87;38.87;;;2.90;99.90;;;;;;5034723;28;20448;-60
2021/01/01 07:42:48;;;;;;;43.53;30.70;;;2.90;99.90;;;;;;5034602;28;20452;-60
2021/01/01 07:45:15;;;;;;;27.63;18.80;;;3.40;99.90;;;;;;5031112;28;20511;-62
2021/01/01 07:47:45;;;;;;;40.00;29.50;;;4.40;99.90;;;;;;5022587;28;20487;-61
2021/01/01 07:50:13;;;;;;;41.93;35.77;;;4.80;99.90;;;;;;5034583;28;20452;-61
2021/01/01 07:52:43;;;;;;;44.30;38.07;;;3.50;99.90;;;;;;5038633;28;20465;-61
2021/01/01 07:55:10;;;;;;;48.83;39.43;;;3.00;99.90;;;;;;5039312;28;20444;-61
2021/01/01 07:57:39;;;;;;;46.93;40.37;;;2.90;99.90;;;;;;5038568;28;20878;-60
2021/01/01 08:00:07;;;;;;;53.83;42.33;;;2.90;99.90;;;;;;5036757;28;20460;-60
2021/01/01 08:02:34;;;;;;;55.83;43.13;;;2.90;99.90;;;;;;5033537;28;20457;-60
2021/01/01 08:05:03;;;;;;;51.20;43.43;;;2.90;99.90;;;;;;5035333;28;20546;-60
2021/01/01 08:07:29;;;;;;;47.63;42.63;;;2.80;99.90;;;;;;5038267;28;20456;-61
2021/01/01 08:09:56;;;;;;;50.73;42.43;;;2.80;99.90;;;;;;5029719;28;20496;-60
2021/01/01 08:12:22;;;;;;;52.37;44.70;;;2.80;99.90;;;;;;5033300;28;20456;-60
2021/01/01 08:14:50;;;;;;;46.27;33.07;;;2.70;99.90;;;;;;5033762;28;21074;-61
2021/01/01 08:17:21;;;;;;;41.40;31.00;;;3.10;99.90;;;;;;5033915;28;21342;-61
2021/01/01 08:19:47;;;;;;;42.90;32.20;;;3.30;99.90;;;;;;5033765;28;20469;-61
2021/01/01 08:22:18;;;;;;;39.97;31.20;;;3.50;99.90;;;;;;5032864;28;20510;-61
2021/01/01 08:24:49;;;;;;;37.30;29.60;;;3.50;99.90;;;;;;5033997;28;20472;-61
2021/01/01 08:27:15;;;;;;;39.83;31.17;;;3.50;99.90;;;;;;5033508;28;20445;-61
2021/01/01 08:29:42;;;;;;;40.57;30.87;;;3.60;99.90;;;;;;5034009;28;20530;-61
2021/01/01 08:32:13;;;;;;;37.00;30.00;;;3.70;99.90;;;;;;5033414;28;20452;-61
2021/01/01 08:34:40;;;;;;;38.10;30.40;;;3.70;99.90;;;;;;5034193;28;20472;-61
2021/01/01 08:37:21;;;;;;;37.03;29.73;;;3.70;99.90;;;;;;5030524;28;20445;-61
2021/01/01 08:39:47;;;;;;;39.07;29.87;;;3.80;99.90;;;;;;5030078;28;20453;-61
2021/01/01 08:42:22;;;;;;;41.30;30.67;;;3.90;99.90;;;;;;5035330;28;20528;-61
2021/01/01 08:44:48;;;;;;;41.57;31.30;;;4.10;99.90;;;;;;5040583;28;20467;-60
2021/01/01 08:47:16;;;;;;;43.43;37.93;;;4.10;99.90;;;;;;5034705;28;20444;-60
2021/01/01 08:49:42;;;;;;;44.63;39.83;;;3.30;99.90;;;;;;5033837;28;20526;-60
2021/01/01 08:52:11;;;;;;;46.30;40.40;;;3.10;99.90;;;;;;5033843;28;20951;-60
2021/01/01 08:54:37;;;;;;;47.70;39.57;;;3.20;99.90;;;;;;5033194;28;20477;-61
2021/01/01 08:57:04;;;;;;;47.43;39.80;;;3.20;99.90;;;;;;5033371;28;21147;-61
2021/01/01 08:59:31;;;;;;;46.17;39.23;;;3.20;99.90;;;;;;5033910;28;20506;-60
2021/01/01 09:01:59;;;;;;;46.47;40.07;;;3.20;99.90;;;;;;5029834;28;20441;-60
2021/01/01 09:04:28;;;;;;;47.03;39.90;;;3.20;99.90;;;;;;5033295;28;20534;-60
2021/01/01 09:06:55;;;;;;;46.17;39.77;;;3.10;99.90;;;;;;5033369;28;20822;-61
2021/01/01 09:09:29;;;;;;;45.20;39.50;;;3.10;99.90;;;;;;5033183;28;20477;-61
2021/01/01 09:12:15;;;;;;;46.27;39.40;;;3.10;99.90;;;;;;5032432;28;20826;-61
2021/01/01 09:14:46;;;;;;;50.60;40.70;;;3.10;99.90;;;;;;5025796;28;20540;-60
2021/01/01 09:17:13;;;;;;;50.83;41.67;;;3.10;99.90;;;;;;5032414;28;20447;-60
2021/01/01 09:19:40;;;;;;;55.67;40.97;;;3.00;99.90;;;;;;5031568;28;20453;-60
2021/01/01 09:22:18;;;;;;;53.33;41.93;;;3.00;99.90;;;;;;5026798;28;20463;-61
2021/01/01 09:24:46;;;;;;;52.37;42.20;;;3.10;99.90;;;;;;5014574;28;20469;-60
2021/01/01 09:27:13;;;;;;;51.20;42.83;;;3.10;99.90;;;;;;5019001;28;20982;-61
2021/01/01 09:29:39;;;;;;;55.73;43.77;;;3.10;99.90;;;;;;5034382;28;20484;-60
2021/01/01 09:32:08;;;;;;;51.40;41.90;;;3.10;99.90;;;;;;5037970;28;20457;-60
2021/01/01 09:34:34;;;;;;;48.80;42.00;;;3.30;99.90;;;;;;5032318;28;20477;-60
2021/01/01 09:37:08;;;;;;;59.20;43.60;;;3.30;99.90;;;;;;5028659;28;20453;-60
2021/01/01 09:39:34;;;;;;;47.40;41.67;;;3.20;99.90;;;;;;5030692;28;20461;-61
2021/01/01 09:42:00;;;;;;;47.87;41.60;;;3.30;99.90;;;;;;5032075;28;20976;-61
2021/01/01 09:44:27;;;;;;;42.80;35.13;;;3.20;99.90;;;;;;5030139;28;20488;-60
2021/01/01 09:46:53;;;;;;;46.10;34.37;;;3.30;99.90;;;;;;5022418;28;20456;-61
2021/01/01 09:49:20;;;;;;;47.47;37.07;;;3.70;99.90;;;;;;5025382;28;20522;-60
2021/01/01 09:51:46;;;;;;;45.77;35.17;;;3.90;99.90;;;;;;5031998;28;20453;-61
2021/01/01 09:54:13;;;;;;;45.60;37.07;;;4.20;99.90;;;;;;5031882;28;20469;-61
2021/01/01 09:56:40;;;;;;;45.00;35.70;;;4.50;99.90;;;;;;5032249;28;20448;-61
2021/01/01 09:59:06;;;;;;;46.90;38.60;;;4.20;99.90;;;;;;5031778;28;20951;-61
2021/01/01 10:01:33;;;;;;;15.90;12.80;;;3.90;99.90;;;;;;5027568;28;20867;-61
2021/01/01 10:04:00;;;;;;;14.93;13.43;;;9.50;99.90;;;;;;5027596;28;20492;-61
2021/01/01 10:06:26;;;;;;;15.87;13.80;;;11.80;99.90;;;;;;5029551;28;20560;-59
2021/01/01 10:08:52;;;;;;;17.63;14.83;;;13.80;99.90;;;;;;5027196;28;20476;-59
2021/01/01 10:11:20;;;;;;;16.20;14.47;;;15.40;99.90;;;;;;5027225;28;20465;-59
2021/01/01 10:13:46;;;;;;;15.30;13.73;;;16.60;99.90;;;;;;5031896;28;20473;-60
2021/01/01 10:16:12;;;;;;;11.47;9.67;;;17.40;99.90;;;;;;5031599;28;20449;-63
2021/01/01 10:18:39;;;;;;;12.30;11.03;;;18.50;99.90;;;;;;5028872;28;22075;-66
2021/01/01 10:21:06;;;;;;;14.57;11.07;;;19.00;99.90;;;;;;5031982;28;20502;-66
2021/01/01 10:23:33;;;;;;;27.40;14.77;;;19.10;99.90;;;;;;5031271;28;20472;-65
2021/01/01 10:25:59;;;;;;;16.13;14.03;;;18.90;99.90;;;;;;5021666;28;20457;-66
2021/01/01 10:28:26;;;;;;;27.47;24.87;;;18.40;99.90;;;;;;5013712;28;20485;-65
2021/01/01 10:30:53;;;;;;;21.33;19.33;;;14.40;99.90;;;;;;5038477;28;20455;-66
2021/01/01 10:33:19;;;;;;;23.17;20.97;;;13.70;99.90;;;;;;5040919;28;20842;-66
2021/01/01 10:35:45;;;;;;;27.90;25.00;;;13.30;99.90;;;;;;5031456;28;20819;-66
2021/01/01 10:38:12;;;;;;;26.47;23.70;;;11.40;99.90;;;;;;5031798;28;20459;-72
2021/01/01 10:40:38;;;;;;;31.60;28.10;;;9.10;99.90;;;;;;5031734;28;20472;-67
2021/01/01 10:43:04;;;;;;;30.20;26.90;;;7.60;99.90;;;;;;5031736;28;20465;-66
2021/01/01 10:45:31;;;;;;;27.03;23.77;;;7.20;99.90;;;;;;5028080;28;20484;-68
2021/01/01 10:47:58;;;;;;;29.90;26.67;;;10.80;99.90;;;;;;5031273;28;20990;-70
2021/01/01 10:50:24;;;;;;;28.13;25.20;;;8.70;99.90;;;;;;5031536;28;20453;-67
2021/01/01 10:52:51;;;;;;;26.37;23.57;;;7.50;99.90;;;;;;5030240;28;20455;-70
2021/01/01 10:55:18;;;;;;;15.07;11.77;;;8.50;99.90;;;;;;5031251;28;20962;-67
2021/01/01 10:57:44;;;;;;;27.93;24.90;;;12.30;99.90;;;;;;5031260;28;20492;-63
2021/01/01 11:00:11;;;;;;;30.80;25.70;;;11.00;99.90;;;;;;5029564;28;20472;-70
2021/01/01 11:02:39;;;;;;;29.10;26.10;;;10.50;99.90;;;;;;5027692;28;20468;-65
2021/01/01 11:05:06;;;;;;;29.87;26.70;;;8.90;99.90;;;;;;5030789;28;20469;-67
2021/01/01 11:07:32;;;;;;;30.27;27.10;;;7.80;99.90;;;;;;5031074;28;20459;-66
2021/01/01 11:09:58;;;;;;;29.23;26.00;;;7.10;99.90;;;;;;5031160;28;20473;-66
2021/01/01 11:12:28;;;;;;;29.23;26.13;;;6.80;99.90;;;;;;5031344;28;20457;-63
2021/01/01 11:15:21;;;;;;;29.17;26.03;;;6.40;99.90;;;;;;5036040;28;20499;-65
2021/01/01 12:21:53;;;;;;;38.47;33.80;;;4.60;99.90;;;;;;5032245;28;20432;-66
2021/01/01 12:24:38;;;;;;;38.60;34.10;;;4.60;99.90;;;;;;5016570;28;20473;-65
2021/01/01 12:27:05;;;;;;;37.40;33.57;;;4.60;99.90;;;;;;5034146;28;20445;-65
2021/01/01 12:29:31;;;;;;;39.90;33.70;;;4.50;99.90;;;;;;5033779;28;20539;-65
2021/01/01 12:31:58;;;;;;;41.70;34.93;;;4.60;99.90;;;;;;5034211;28;20528;-65
2021/01/01 12:34:25;;;;;;;36.20;32.50;;;4.60;99.90;;;;;;5033488;28;20477;-65
2021/01/01 12:36:51;;;;;;;36.60;32.60;;;4.60;99.90;;;;;;5033225;28;20448;-65
2021/01/01 12:39:17;;;;;;;37.93;33.47;;;4.70;99.90;;;;;;5033543;28;21268;-65
2021/01/01 12:41:44;;;;;;;35.87;32.27;;;4.60;99.90;;;;;;5034178;28;20453;-64
2021/01/01 12:44:11;;;;;;;39.10;34.60;;;4.60;99.90;;;;;;5033186;28;20483;-64
2021/01/01 12:46:37;;;;;;;36.10;32.33;;;4.60;99.90;;;;;;5033733;28;20944;-64
2021/01/01 12:49:03;;;;;;;39.53;33.73;;;4.60;99.90;;;;;;5032697;28;20503;-64
2021/01/01 12:51:29;;;;;;;36.47;32.67;;;4.70;99.90;;;;;;5032311;28;20472;-64
2021/01/01 12:53:56;;;;;;;39.13;33.70;;;4.60;99.90;;;;;;5031785;28;20846;-64
2021/01/01 12:56:22;;;;;;;36.03;32.23;;;4.60;99.90;;;;;;5032738;28;20817;-64
2021/01/01 12:58:49;;;;;;;36.80;33.10;;;4.70;99.90;;;;;;5033312;28;20459;-64
2021/01/01 13:01:15;;;;;;;37.77;33.77;;;4.70;99.90;;;;;;5033417;28;20447;-64
2021/01/01 13:03:42;;;;;;;37.17;33.57;;;4.70;99.90;;;;;;5031859;28;20469;-64
2021/01/01 13:06:08;;;;;;;38.30;34.40;;;4.60;99.90;;;;;;5018448;28;20449;-65
2021/01/01 13:08:34;;;;;;;38.70;34.77;;;4.70;99.90;;;;;;5031913;28;20579;-65
2021/01/01 13:11:01;;;;;;;38.77;34.77;;;4.70;99.90;;;;;;5033032;28;20453;-64
2021/01/01 13:13:27;;;;;;;41.93;37.63;;;4.70;99.90;;;;;;5033338;28;20494;-66
2021/01/01 13:15:54;;;;;;;38.17;34.20;;;4.80;99.90;;;;;;5032236;28;20456;-65
2021/01/01 13:18:20;;;;;;;41.10;36.83;;;4.80;99.90;;;;;;5032410;28;20864;-66
2021/01/01 13:20:48;;;;;;;39.57;34.77;;;4.90;99.90;;;;;;5033154;28;20950;-66
2021/01/01 13:23:14;;;;;;;40.03;36.10;;;4.90;99.90;;;;;;5024799;28;20472;-65
2021/01/01 13:25:40;;;;;;;43.07;38.37;;;4.90;99.90;;;;;;5031937;28;20452;-67
2021/01/01 13:28:06;;;;;;;40.53;36.27;;;4.90;99.90;;;;;;5033169;28;20456;-64
2021/01/01 13:30:33;;;;;;;42.33;37.90;;;4.90;99.90;;;;;;5034195;28;20453;-65
2021/01/01 13:33:00;;;;;;;39.67;35.60;;;5.00;99.90;;;;;;5034096;28;20445;-65
2021/01/01 13:35:27;;;;;;;39.50;35.33;;;4.90;99.90;;;;;;5033448;28;20449;-64
2021/01/01 13:37:53;;;;;;;37.07;33.17;;;4.90;99.90;;;;;;5032895;28;20460;-64
2021/01/01 13:40:20;;;;;;;37.60;33.47;;;4.90;99.90;;;;;;5033230;28;20456;-64
2021/01/01 13:42:50;;;;;;;36.03;32.27;;;4.90;99.90;;;;;;5034310;28;20448;-67
2021/01/01 13:45:16;;;;;;;36.30;32.50;;;4.80;99.90;;;;;;5035147;28;20452;-64